Island City, Indiana
Current Conditions -  °F | °C
As of 9:15 AM on Thursday 29 Jan 2015 (Local Time) from KDCY Reporting Station
Scattered Clouds Scattered Clouds  
Wind Chill:   Ceiling: Unl
Heat Index:   Visibility: 10mi
Dew Point:   Wind: 16mph
Humidity: 58%   Direction: 230°SW
Pressure: 29.86"   Gusts: 21mph
Location:  39.0608°N, 87.1852°W
Report Text: KDCY 291415Z AUTO 23014G18KT 10SM SCT034 SCT042 09/01 A2986 RMK AO2 T00860008
Loading
Personal Weather Stations






























Interactive Weather Map New forecast layout! Learn more

10-Day Weather Forecast

Advertisements
Track Severe Weather on mobile